Time;durP1;ratioP1;P1;durP2;ratioP2;P2;SDS_P1;SDS_P2;PMS_P1;PMS_P2;Temp;Humidity;BMP_temperature;BMP_pressure;BME280_temperature;BME280_humidity;BME280_pressure;Samples;Min_cycle;Max_cycle;Signal;HPM_P1;HPM_P2
2022/11/19 00:01:26;;;;;;;17.95;7.88;;;10.40;99.90;;;;;;4117783;28;20201;-92
2022/11/19 00:03:31;;;;;;;18.73;8.20;;;10.50;99.90;;;;;;4117807;28;20202;-92
2022/11/19 00:05:38;;;;;;;17.77;8.45;;;10.40;99.90;;;;;;4133842;28;20629;-93
2022/11/19 00:07:38;;;;;;;17.42;8.25;;;10.30;99.90;;;;;;4133731;28;20237;-92
2022/11/19 00:09:39;;;;;;;17.05;8.85;;;10.30;99.90;;;;;;4117786;28;20170;-93
2022/11/19 00:14:00;;;;;;;16.42;9.05;;;10.20;99.90;;;;;;4133476;28;20284;-92
2022/11/19 00:16:07;;;;;;;22.65;9.10;;;10.20;99.90;;;;;;4117320;28;20639;-93
2022/11/19 00:18:07;;;;;;;13.82;8.30;;;10.20;99.90;;;;;;4133185;28;20185;-92
2022/11/19 00:20:08;;;;;;;15.32;8.65;;;10.20;99.90;;;;;;4101453;29;20171;-93
2022/11/19 00:22:10;;;;;;;29.65;9.38;;;10.30;99.90;;;;;;4101519;28;20246;-92
2022/11/19 00:24:17;;;;;;;14.55;9.00;;;10.40;99.90;;;;;;4117565;28;20202;-92
2022/11/19 00:26:17;;;;;;;17.13;9.80;;;10.30;99.90;;;;;;4117455;28;20206;-93
2022/11/19 00:28:18;;;;;;;16.55;9.05;;;10.20;99.90;;;;;;4117549;28;20193;-93
2022/11/19 00:30:32;;;;;;;19.33;9.77;;;10.20;99.90;;;;;;4133382;28;20178;-92
2022/11/19 00:32:33;;;;;;;23.30;10.77;;;10.40;99.90;;;;;;4133282;28;20269;-92
2022/11/19 00:34:47;;;;;;;25.48;10.40;;;10.40;99.90;;;;;;4117156;28;20265;-95
2022/11/19 00:36:47;;;;;;;18.65;9.48;;;10.30;99.90;;;;;;4117225;28;20220;-93
2022/11/19 00:38:48;;;;;;;18.88;10.05;;;10.10;99.90;;;;;;4117164;28;20198;-94
2022/11/19 00:40:49;;;;;;;24.45;10.18;;;10.00;99.90;;;;;;4133516;28;20184;-92
2022/11/19 00:45:12;;;;;;;19.23;9.93;;;10.00;99.90;;;;;;4133366;28;20256;-92
2022/11/19 00:47:13;;;;;;;19.58;10.20;;;10.10;99.90;;;;;;4133276;28;20641;-93
2022/11/19 00:49:14;;;;;;;18.25;10.10;;;10.10;99.90;;;;;;4133122;28;20232;-93
2022/11/19 00:51:16;;;;;;;15.63;9.30;;;10.10;99.90;;;;;;4117435;28;20174;-93
2022/11/19 00:53:16;;;;;;;23.42;10.23;;;10.20;99.90;;;;;;4133095;28;20670;-93
2022/11/19 00:55:20;;;;;;;23.50;10.07;;;10.40;99.90;;;;;;4116857;28;20258;-93
2022/11/19 00:57:26;;;;;;;20.27;9.63;;;10.20;99.90;;;;;;4116844;28;20186;-93
2022/11/19 00:59:30;;;;;;;23.50;9.38;;;10.30;99.90;;;;;;4133211;28;20170;-93
2022/11/19 01:01:33;;;;;;;18.08;10.18;;;10.40;99.90;;;;;;4132932;28;20178;-92
2022/11/19 01:03:35;;;;;;;18.85;9.88;;;10.20;99.90;;;;;;4132914;28;20761;-92
2022/11/19 01:05:36;;;;;;;22.08;10.45;;;10.30;99.90;;;;;;4101008;28;20793;-93
2022/11/19 01:07:39;;;;;;;23.45;9.95;;;10.10;99.90;;;;;;4116874;28;20202;-93
2022/11/19 01:09:42;;;;;;;25.10;9.55;;;10.20;99.90;;;;;;4132874;28;20169;-93
2022/11/19 01:11:43;;;;;;;20.30;9.38;;;10.30;99.90;;;;;;4116781;28;20237;-94
2022/11/19 01:13:44;;;;;;;21.70;9.77;;;10.50;99.90;;;;;;4116537;28;20800;-94
2022/11/19 01:15:50;;;;;;;18.58;10.43;;;10.50;99.90;;;;;;4132869;28;20165;-93
2022/11/19 01:17:54;;;;;;;22.65;9.18;;;10.40;99.90;;;;;;4132743;28;20217;-93
2022/11/19 01:19:55;;;;;;;17.48;10.00;;;10.40;99.90;;;;;;4100968;28;20171;-92
2022/11/19 01:21:56;;;;;;;16.88;9.25;;;10.50;99.90;;;;;;4116682;28;20224;-92
2022/11/19 01:23:57;;;;;;;17.48;9.55;;;10.40;99.90;;;;;;4132730;28;20690;-94
2022/11/19 01:25:58;;;;;;;21.65;8.90;;;10.30;99.90;;;;;;4132657;28;20213;-91
2022/11/19 01:27:59;;;;;;;17.73;8.07;;;10.40;99.90;;;;;;4116333;28;20201;-92
2022/11/19 01:30:00;;;;;;;18.35;9.15;;;10.20;99.90;;;;;;4100510;28;20226;-93
2022/11/19 01:32:01;;;;;;;17.80;9.40;;;10.30;99.90;;;;;;4132466;28;20169;-94
2022/11/19 01:34:01;;;;;;;15.65;8.93;;;10.30;99.90;;;;;;4116330;28;20678;-93
2022/11/19 01:36:09;;;;;;;16.83;8.90;;;10.30;99.90;;;;;;4132431;28;20591;-93
2022/11/19 01:38:10;;;;;;;16.10;8.45;;;10.30;99.90;;;;;;4132793;28;20176;-93
2022/11/19 01:40:11;;;;;;;15.00;8.90;;;10.30;99.90;;;;;;4116458;28;20166;-91
2022/11/19 01:42:50;;;;;;;15.20;8.70;;;10.30;99.90;;;;;;4132215;28;20182;-93
2022/11/19 01:45:00;;;;;;;15.05;8.20;;;10.40;99.90;;;;;;4100199;28;20237;-93
2022/11/19 01:47:03;;;;;;;15.63;8.68;;;10.30;99.90;;;;;;4132494;28;20231;-93
2022/11/19 01:49:11;;;;;;;18.05;9.25;;;10.40;99.90;;;;;;4132766;28;20174;-93
2022/11/19 01:51:35;;;;;;;23.23;9.02;;;10.50;99.90;;;;;;4132706;28;20281;-92
2022/11/19 01:53:37;;;;;;;15.15;8.80;;;10.40;99.90;;;;;;4106221;28;20198;-92
2022/11/19 01:55:40;;;;;;;16.85;8.77;;;10.40;99.90;;;;;;4132068;28;20181;-93
2022/11/19 01:57:41;;;;;;;20.85;9.40;;;10.40;99.90;;;;;;4115997;28;20190;-94
2022/11/19 01:59:46;;;;;;;16.05;9.35;;;10.50;99.90;;;;;;4100071;28;20249;-92
2022/11/19 02:01:47;;;;;;;19.10;8.73;;;10.50;99.90;;;;;;4132083;28;20174;-93
2022/11/19 02:03:49;;;;;;;15.82;8.85;;;10.60;99.90;;;;;;4116228;28;20245;-93
2022/11/19 02:05:50;;;;;;;20.30;8.75;;;10.50;99.90;;;;;;4116058;28;20698;-92
2022/11/19 02:07:56;;;;;;;14.32;8.18;;;10.50;99.90;;;;;;4116006;28;20177;-93
2022/11/19 02:09:58;;;;;;;17.05;8.43;;;10.50;99.90;;;;;;4131826;28;20173;-92
2022/11/19 02:12:16;;;;;;;19.63;8.68;;;10.40;99.90;;;;;;4115681;28;20638;-92
2022/11/19 02:14:35;;;;;;;15.30;7.70;;;10.40;99.90;;;;;;4131961;28;20200;-92
2022/11/19 02:16:38;;;;;;;14.88;8.25;;;10.50;99.90;;;;;;4131984;28;20654;-94
2022/11/19 02:19:12;;;;;;;20.10;8.18;;;10.50;99.90;;;;;;4132095;28;20182;-93
2022/11/19 02:21:56;;;;;;;14.40;7.53;;;10.40;99.90;;;;;;4115808;28;20706;-93
2022/11/19 02:24:12;;;;;;;22.48;7.80;;;10.10;99.90;;;;;;4089424;28;20298;-94
2022/11/19 02:26:40;;;;;;;13.57;7.13;;;10.10;99.90;;;;;;4132433;28;20237;-91
2022/11/19 02:28:53;;;;;;;11.68;7.43;;;10.10;99.90;;;;;;4132863;28;20185;-93
2022/11/19 02:31:18;;;;;;;13.40;6.88;;;10.10;99.90;;;;;;4116899;28;20182;-94
2022/11/19 02:33:28;;;;;;;14.20;7.60;;;10.20;99.90;;;;;;4133809;28;20216;-91
2022/11/19 02:35:48;;;;;;;15.70;7.15;;;10.10;99.90;;;;;;4117805;28;20173;-92
2022/11/19 02:38:04;;;;;;;10.90;7.57;;;10.10;99.90;;;;;;4133777;28;20665;-93
2022/11/19 02:40:22;;;;;;;20.95;8.00;;;10.00;99.90;;;;;;4117794;28;20174;-92
2022/11/19 02:42:32;;;;;;;16.45;7.90;;;10.10;99.90;;;;;;4118039;28;20206;-93
2022/11/19 02:45:01;;;;;;;15.68;8.50;;;10.20;99.90;;;;;;4117906;28;20189;-92
2022/11/19 02:47:05;;;;;;;11.70;7.88;;;10.10;99.90;;;;;;4133524;28;20201;-93
2022/11/19 02:49:09;;;;;;;13.85;7.30;;;10.00;99.90;;;;;;4133123;28;20276;-92
2022/11/19 02:51:10;;;;;;;14.43;7.90;;;10.00;99.90;;;;;;4144788;28;20177;-93
2022/11/19 02:53:11;;;;;;;18.52;8.52;;;9.80;99.90;;;;;;4135031;28;20182;-93
2022/11/19 02:55:17;;;;;;;16.90;7.35;;;9.90;99.90;;;;;;4136206;28;20182;-91
2022/11/19 02:57:18;;;;;;;14.02;7.53;;;10.00;99.90;;;;;;4152477;28;20192;-91
2022/11/19 03:06:31;;;;;;;16.55;8.02;;;10.20;99.90;;;;;;4152318;28;20217;-92
2022/11/19 03:08:34;;;;;;;12.32;8.30;;;10.10;99.90;;;;;;4154958;28;20205;-93
2022/11/19 03:11:03;;;;;;;19.08;8.70;;;10.10;99.90;;;;;;4155024;28;20181;-92
2022/11/19 03:18:18;;;;;;;17.60;9.07;;;9.80;99.90;;;;;;4155075;28;20234;-91
2022/11/19 03:20:23;;;;;;;20.08;9.18;;;9.90;99.90;;;;;;4131333;28;20290;-94
2022/11/19 03:22:31;;;;;;;19.13;8.80;;;10.00;99.90;;;;;;4118310;28;20184;-93
2022/11/19 03:24:36;;;;;;;20.95;9.57;;;9.90;99.90;;;;;;4134264;28;20203;-92
2022/11/19 03:26:55;;;;;;;22.27;9.25;;;9.80;99.90;;;;;;4118217;28;20241;-93
2022/11/19 03:29:00;;;;;;;19.95;9.02;;;9.80;99.90;;;;;;4118898;28;20249;-93
2022/11/19 03:31:03;;;;;;;17.25;8.98;;;9.80;99.90;;;;;;4134378;28;20630;-93
2022/11/19 03:33:09;;;;;;;17.33;9.00;;;9.80;99.90;;;;;;4134248;28;20181;-92
2022/11/19 03:35:24;;;;;;;15.02;9.20;;;9.90;99.90;;;;;;4118273;28;20170;-92
2022/11/19 03:37:30;;;;;;;18.55;8.90;;;9.90;99.90;;;;;;4134716;28;20185;-94
2022/11/19 03:39:35;;;;;;;14.23;8.95;;;9.90;99.90;;;;;;4134380;28;20260;-93
2022/11/19 03:41:39;;;;;;;16.40;8.88;;;9.90;99.90;;;;;;4134064;28;20228;-93
2022/11/19 03:43:44;;;;;;;17.92;8.57;;;10.00;99.90;;;;;;4134411;28;20583;-93
2022/11/19 03:45:48;;;;;;;15.20;8.20;;;10.00;99.90;;;;;;4134254;28;20682;-93
2022/11/19 03:47:52;;;;;;;16.73;8.05;;;9.90;99.90;;;;;;4134108;28;20170;-93
2022/11/19 03:50:01;;;;;;;13.50;8.68;;;9.90;99.90;;;;;;4118264;28;20170;-93
2022/11/19 03:52:14;;;;;;;19.02;8.32;;;9.90;99.90;;;;;;4134102;28;20162;-92
2022/11/19 03:54:16;;;;;;;14.35;8.02;;;10.00;99.90;;;;;;4118618;28;20208;-92
2022/11/19 03:56:25;;;;;;;15.98;8.43;;;10.00;99.90;;;;;;4118314;28;20213;-92
2022/11/19 03:58:28;;;;;;;13.60;8.50;;;10.10;99.90;;;;;;4118326;28;20622;-92
2022/11/19 04:00:30;;;;;;;17.88;9.30;;;10.10;99.90;;;;;;4134092;28;20626;-93
2022/11/19 04:02:33;;;;;;;19.63;9.25;;;10.10;99.90;;;;;;4134158;28;20181;-92
2022/11/19 04:04:36;;;;;;;17.55;9.25;;;10.20;99.90;;;;;;4117941;28;20694;-93
2022/11/19 04:06:37;;;;;;;16.80;8.95;;;10.30;99.90;;;;;;4117635;28;20213;-92
2022/11/19 04:08:40;;;;;;;23.45;9.40;;;10.40;99.90;;;;;;4118233;28;20174;-93
2022/11/19 04:10:43;;;;;;;16.27;8.60;;;10.40;99.90;;;;;;4117741;28;20214;-93
2022/11/19 04:12:44;;;;;;;17.42;9.63;;;10.40;99.90;;;;;;4117547;28;20217;-92
2022/11/19 04:14:45;;;;;;;14.30;9.18;;;10.40;99.90;;;;;;4117775;28;20233;-92
2022/11/19 04:16:46;;;;;;;15.85;9.23;;;10.30;99.90;;;;;;4133667;28;20272;-95
2022/11/19 04:18:46;;;;;;;18.15;9.20;;;10.40;99.90;;;;;;4117084;28;20166;-94
2022/11/19 04:20:47;;;;;;;21.63;9.73;;;10.20;99.90;;;;;;4133720;28;20574;-92
2022/11/19 04:22:50;;;;;;;13.52;9.20;;;10.30;99.90;;;;;;4117639;28;20170;-92
2022/11/19 04:24:51;;;;;;;16.40;9.27;;;10.20;99.90;;;;;;4133560;28;20174;-93
2022/11/19 04:26:55;;;;;;;15.50;8.55;;;10.20;99.90;;;;;;4117664;28;20178;-92
2022/11/19 04:28:56;;;;;;;19.23;9.40;;;10.10;99.90;;;;;;4133390;28;20224;-93
2022/11/19 04:30:56;;;;;;;14.95;8.88;;;10.10;99.90;;;;;;4133612;28;20225;-92
2022/11/19 04:32:58;;;;;;;15.55;9.85;;;10.00;99.90;;;;;;4117855;28;20171;-92
2022/11/19 04:35:01;;;;;;;15.70;9.38;;;10.10;99.90;;;;;;4133726;28;20252;-95
2022/11/19 04:37:07;;;;;;;16.08;9.48;;;10.10;99.90;;;;;;4133488;28;20181;-93
2022/11/19 04:39:13;;;;;;;15.68;9.88;;;10.20;99.90;;;;;;4133424;28;20169;-93
2022/11/19 04:41:14;;;;;;;19.90;10.05;;;10.20;99.90;;;;;;4133481;28;20169;-92
2022/11/19 04:43:14;;;;;;;21.55;10.55;;;10.20;99.90;;;;;;4101234;28;20217;-92
2022/11/19 04:45:15;;;;;;;17.13;9.63;;;10.10;99.90;;;;;;4133235;28;20197;-94
2022/11/19 04:47:16;;;;;;;17.20;9.73;;;9.90;99.90;;;;;;4117042;28;20210;-93
2022/11/19 04:49:19;;;;;;;18.02;10.00;;;9.90;99.90;;;;;;4117204;28;20179;-93
2022/11/19 04:51:25;;;;;;;19.70;9.93;;;10.00;99.90;;;;;;4101549;28;20183;-93
2022/11/19 04:53:34;;;;;;;15.23;9.90;;;10.00;99.90;;;;;;4133421;28;20192;-92
2022/11/19 04:55:45;;;;;;;;;;;;;;;;;;;;;
2022/11/19 04:57:50;;;;;;;15.65;8.90;;;10.10;99.90;;;;;;4134370;28;20228;-93
2022/11/19 04:59:51;;;;;;;16.27;8.95;;;10.20;99.90;;;;;;4119104;28;20257;-93
2022/11/19 05:01:52;;;;;;;15.98;9.70;;;10.20;99.90;;;;;;4118186;28;20571;-93
2022/11/19 05:03:53;;;;;;;19.02;9.10;;;10.20;99.90;;;;;;4119284;28;20238;-93
2022/11/19 05:05:54;;;;;;;13.40;8.77;;;10.10;99.90;;;;;;4119699;28;20249;-93
2022/11/19 05:07:55;;;;;;;18.27;9.18;;;10.00;99.90;;;;;;4118631;28;20228;-93
2022/11/19 05:09:58;;;;;;;14.85;8.95;;;10.00;99.90;;;;;;4119411;28;20178;-91
2022/11/19 05:11:58;;;;;;;15.73;8.98;;;10.00;99.90;;;;;;4134821;28;20169;-92
2022/11/19 05:13:59;;;;;;;15.30;9.02;;;10.10;99.90;;;;;;4103379;28;20798;-92
2022/11/19 05:16:00;;;;;;;22.83;9.50;;;10.00;99.90;;;;;;4117782;28;20178;-92
2022/11/19 05:18:04;;;;;;;15.38;9.00;;;10.10;99.90;;;;;;4101883;28;20246;-92
2022/11/19 05:20:08;;;;;;;18.85;9.50;;;10.20;99.90;;;;;;4118813;28;20197;-92
2022/11/19 05:22:08;;;;;;;18.73;8.50;;;10.10;99.90;;;;;;4118905;28;20178;-93
2022/11/19 05:24:09;;;;;;;15.80;8.85;;;10.20;99.90;;;;;;4130861;28;20182;-91
2022/11/19 05:26:10;;;;;;;14.80;9.20;;;10.00;99.90;;;;;;4153031;28;20221;-93
2022/11/19 05:28:13;;;;;;;21.70;9.30;;;10.00;99.90;;;;;;4153053;28;20154;-92
2022/11/19 05:30:17;;;;;;;15.70;8.88;;;10.00;99.90;;;;;;4152756;28;20194;-92
2022/11/19 05:32:17;;;;;;;16.65;8.55;;;10.00;99.90;;;;;;4135768;28;20178;-91
2022/11/19 05:34:21;;;;;;;16.27;9.13;;;10.00;99.90;;;;;;4120841;28;20205;-92
2022/11/19 05:36:21;;;;;;;15.15;8.93;;;10.00;99.90;;;;;;4137073;28;20225;-92
2022/11/19 05:38:25;;;;;;;18.17;8.70;;;10.00;99.90;;;;;;4120973;28;20186;-93
2022/11/19 05:40:28;;;;;;;13.60;8.57;;;10.00;99.90;;;;;;4136897;28;20167;-93
2022/11/19 05:42:29;;;;;;;16.92;8.18;;;10.00;99.90;;;;;;4136617;28;20154;-92
2022/11/19 05:44:29;;;;;;;14.55;8.00;;;10.10;99.90;;;;;;4136821;28;20194;-91
2022/11/19 05:46:33;;;;;;;16.92;8.35;;;10.10;99.90;;;;;;4136748;28;20198;-94
2022/11/19 05:48:34;;;;;;;20.60;8.60;;;10.10;99.90;;;;;;4152989;28;20180;-92
2022/11/19 05:50:38;;;;;;;17.10;9.55;;;10.10;99.90;;;;;;4149445;28;20177;-95
2022/11/19 05:52:38;;;;;;;19.10;8.70;;;10.20;99.90;;;;;;4116809;28;20170;-94
2022/11/19 05:54:39;;;;;;;15.82;8.57;;;10.10;99.90;;;;;;4100327;28;20711;-93
2022/11/19 05:56:52;;;;;;;17.63;8.95;;;10.10;99.90;;;;;;4100207;29;20254;-93
2022/11/19 05:58:53;;;;;;;16.15;9.05;;;10.10;99.90;;;;;;4132055;28;20173;-92
2022/11/19 06:00:58;;;;;;;16.08;8.32;;;10.00;99.90;;;;;;4116241;28;20169;-93
2022/11/19 06:02:59;;;;;;;15.38;8.98;;;10.20;99.90;;;;;;4132502;28;20180;-93
2022/11/19 06:04:59;;;;;;;18.80;8.43;;;10.10;99.90;;;;;;4129365;28;20158;-94
2022/11/19 06:07:05;;;;;;;15.45;8.70;;;10.10;99.90;;;;;;4134728;28;20162;-94
2022/11/19 06:09:07;;;;;;;20.17;9.07;;;10.10;99.90;;;;;;4116427;28;20605;-93
2022/11/19 06:14:02;;;;;;;14.88;8.38;;;10.10;99.90;;;;;;4082594;29;20200;-94
2022/11/19 06:16:38;;;;;;;24.23;10.15;;;10.50;99.90;;;;;;4094899;28;20656;-93
2022/11/19 06:20:07;;;;;;;;;;;;;;;;;;;;;
2022/11/19 06:23:19;;;;;;;17.77;9.20;;;10.40;99.90;;;;;;4132976;28;20192;-94
2022/11/19 07:52:20;;;;;;;;;;;;;;;;;;;;;
2022/11/19 07:57:08;;;;;;;28.05;16.33;;;11.30;99.90;;;;;;4101809;28;20272;-94
2022/11/19 07:59:11;;;;;;;27.48;16.30;;;10.80;99.90;;;;;;4101911;28;20206;-94
2022/11/19 08:01:18;;;;;;;29.88;17.55;;;10.40;99.90;;;;;;4086163;29;20661;-93
2022/11/19 08:03:19;;;;;;;40.92;23.58;;;10.00;99.90;;;;;;4101796;28;20746;-94
2022/11/19 08:05:25;;;;;;;24.88;13.43;;;9.70;99.90;;;;;;4085972;29;20206;-95
2022/11/19 08:07:38;;;;;;;25.15;14.60;;;10.00;99.90;;;;;;4085814;29;20171;-95
2022/11/19 08:09:44;;;;;;;25.02;15.93;;;10.60;99.90;;;;;;4085900;29;20258;-92
2022/11/19 08:11:47;;;;;;;23.25;14.35;;;10.90;99.90;;;;;;4085776;29;20202;-96
2022/11/19 08:13:58;;;;;;;22.73;15.37;;;11.10;99.90;;;;;;4101983;28;20198;-95
2022/11/19 08:16:03;;;;;;;30.63;18.17;;;11.30;99.90;;;;;;4086040;29;20203;-94
2022/11/19 08:18:12;;;;;;;27.33;17.88;;;11.30;99.90;;;;;;4086385;29;20166;-96
2022/11/19 08:20:15;;;;;;;30.87;18.17;;;11.10;99.90;;;;;;4086128;29;20184;-94
2022/11/19 08:22:18;;;;;;;19.30;13.67;;;10.80;99.90;;;;;;4085693;29;20184;-94
2022/11/19 08:24:45;;;;;;;13.93;9.03;;;10.20;99.90;;;;;;4069741;29;20203;-94
2022/11/19 08:26:48;;;;;;;16.17;9.40;;;9.90;99.90;;;;;;4086049;29;20211;-95
2022/11/19 08:32:05;;;;;;;16.57;8.27;;;9.20;99.90;;;;;;4094846;28;20770;-95
2022/11/19 08:34:23;;;;;;;12.57;6.60;;;9.10;99.90;;;;;;4069555;29;20768;-94
2022/11/19 08:36:37;;;;;;;8.53;5.60;;;8.90;99.90;;;;;;4086956;29;20168;-94
2022/11/19 08:39:06;;;;;;;11.93;6.57;;;8.70;99.90;;;;;;4085542;29;20267;-94
2022/11/19 08:44:16;;;;;;;;;;;;;;;;;;;;;
2022/11/19 08:46:35;;;;;;;9.53;5.40;;;8.60;99.90;;;;;;4102029;28;20221;-94
2022/11/19 08:50:02;;;;;;;;;;;;;;;;;;;;;
2022/11/19 08:52:11;;;;;;;8.17;5.20;;;8.70;99.90;;;;;;4099131;28;20691;-95
2022/11/19 08:54:45;;;;;;;9.13;5.33;;;8.70;99.90;;;;;;4100573;28;20213;-95
2022/11/19 08:57:09;;;;;;;10.27;6.60;;;8.60;99.90;;;;;;4087409;29;20264;-94
2022/11/19 08:59:56;;;;;;;13.70;7.40;;;8.40;99.90;;;;;;4101182;28;20179;-94
2022/11/19 09:02:22;;;;;;;13.60;7.43;;;8.50;99.90;;;;;;4084285;29;20187;-92
2022/11/19 09:04:35;;;;;;;;;;;;;;;;;;;;;
2022/11/19 09:07:18;;;;;;;14.30;8.33;;;8.20;99.90;;;;;;4100749;28;20210;-94
2022/11/19 09:09:57;;;;;;;14.73;9.43;;;8.20;99.90;;;;;;4091870;28;20190;-94
2022/11/19 09:12:24;;;;;;;17.27;10.73;;;8.20;99.90;;;;;;4084735;29;20195;-95
2022/11/19 09:14:32;;;;;;;21.77;10.20;;;7.90;99.90;;;;;;4084921;29;20192;-94
2022/11/19 09:16:56;;;;;;;;;;;;;;;;;;;;;
2022/11/19 09:19:38;;;;;;;15.57;9.90;;;7.80;99.90;;;;;;4101935;28;20179;-95
2022/11/19 09:22:03;;;;;;;16.60;9.57;;;8.10;99.90;;;;;;4100520;28;20191;-93
2022/11/19 09:24:37;;;;;;;17.03;10.10;;;8.10;99.90;;;;;;4084882;29;20195;-95
2022/11/19 09:27:20;;;;;;;19.13;10.10;;;7.90;99.90;;;;;;4084037;29;20255;-96
2022/11/19 09:30:20;;;;;;;16.23;9.43;;;7.90;99.90;;;;;;4087325;28;20323;-94
2022/11/19 09:32:29;;;;;;;17.47;9.87;;;8.00;99.90;;;;;;4084479;29;20668;-94
2022/11/19 09:34:39;;;;;;;17.37;10.37;;;7.90;99.90;;;;;;4084607;29;20290;-94
2022/11/19 09:37:09;;;;;;;15.87;10.13;;;8.00;99.90;;;;;;4100605;28;20187;-94
2022/11/19 09:40:26;;;;;;;;;;;;;;;;;;;;;
2022/11/19 09:43:06;;;;;;;14.87;9.47;;;8.00;99.90;;;;;;4101700;28;20273;-96
2022/11/19 09:46:08;;;;;;;;;;;;;;;;;;;;;
2022/11/19 09:49:03;;;;;;;16.67;9.67;;;7.70;99.90;;;;;;4101773;28;20194;-93
2022/11/19 09:51:45;;;;;;;15.27;9.67;;;7.80;99.90;;;;;;4091555;28;20179;-94
2022/11/19 09:54:18;;;;;;;16.77;9.77;;;7.70;99.90;;;;;;4099463;28;20213;-95
2022/11/19 09:56:43;;;;;;;14.93;9.97;;;7.80;99.90;;;;;;4100345;28;20213;-96
2022/11/19 09:59:56;;;;;;;15.87;9.40;;;7.80;99.90;;;;;;4092196;28;20186;-94
2022/11/19 10:02:19;;;;;;;16.47;9.10;;;7.70;99.90;;;;;;4083544;29;20180;-96
2022/11/19 10:04:55;;;;;;;13.87;8.70;;;7.70;99.90;;;;;;4084169;29;20692;-95
2022/11/19 10:07:39;;;;;;;15.37;8.20;;;7.70;99.90;;;;;;4086058;28;20198;-94
2022/11/19 10:10:17;;;;;;;;;;;;;;;;;;;;;
2022/11/19 10:12:40;;;;;;;13.10;7.80;;;7.80;99.90;;;;;;4099851;28;20179;-94
2022/11/19 10:15:15;;;;;;;11.53;7.00;;;7.70;99.90;;;;;;4083790;29;20661;-93
2022/11/19 10:18:05;;;;;;;10.23;6.83;;;7.70;99.90;;;;;;4099238;28;20533;-94
2022/11/19 10:20:51;;;;;;;12.63;7.80;;;7.70;99.90;;;;;;4084404;29;20657;-95
2022/11/19 10:23:01;;;;;;;11.93;7.73;;;7.70;99.90;;;;;;4084352;29;20182;-93
2022/11/19 10:26:09;;;;;;;11.93;7.30;;;7.50;99.90;;;;;;4099913;28;20179;-95
2022/11/19 10:28:30;;;;;;;9.03;5.80;;;7.20;99.90;;;;;;4020897;29;20280;-94
2022/11/19 10:30:37;;;;;;;10.43;5.83;;;7.20;99.90;;;;;;4096326;28;20234;-94
2022/11/19 10:33:24;;;;;;;9.03;5.80;;;7.20;99.90;;;;;;4083943;29;20186;-94
2022/11/19 10:36:02;;;;;;;10.47;5.27;;;7.30;99.90;;;;;;4061807;29;20629;-92
2022/11/19 10:42:13;;;;;;;9.50;6.23;;;7.10;99.90;;;;;;4083577;29;20198;-94
2022/11/19 10:44:44;;;;;;;9.87;6.47;;;7.40;99.90;;;;;;4065599;29;20535;-94
2022/11/19 10:46:59;;;;;;;;;;;;;;;;;;;;;
2022/11/19 10:51:52;;;;;;;12.40;7.90;;;7.60;99.90;;;;;;4100029;28;20596;-94
2022/11/19 10:54:20;;;;;;;13.77;8.07;;;7.40;99.90;;;;;;4100055;28;20214;-93
2022/11/19 10:56:41;;;;;;;12.67;8.40;;;7.20;99.90;;;;;;4100094;28;20225;-94
2022/11/19 10:59:19;;;;;;;15.63;9.77;;;7.00;99.90;;;;;;4099820;28;20214;-96
2022/11/19 11:01:45;;;;;;;17.37;11.13;;;6.80;99.90;;;;;;4084358;29;20188;-95
2022/11/19 11:04:45;;;;;;;22.23;12.43;;;6.70;99.90;;;;;;4100179;28;20540;-94
2022/11/19 11:07:01;;;;;;;24.03;14.10;;;6.50;99.90;;;;;;4036840;29;20229;-94
2022/11/19 11:16:02;;;;;;;23.60;14.03;;;6.30;99.90;;;;;;4051988;29;20268;-94
2022/11/19 11:18:41;;;;;;;27.33;14.23;;;6.50;99.90;;;;;;4066636;29;20187;-95
2022/11/19 11:22:22;;;;;;;25.67;14.67;;;6.60;99.90;;;;;;4096703;28;20185;-93
2022/11/19 11:26:36;;;;;;;23.87;13.93;;;6.70;99.90;;;;;;4800190;23;20698;-95
2022/11/19 11:29:25;;;;;;;27.23;14.30;;;6.60;99.90;;;;;;4118011;28;20186;-95
2022/11/19 11:35:34;;;;;;;;;;;;;;;;;;;;;
2022/11/19 11:38:29;;;;;;;;;;;;;;;;;;;;;
2022/11/19 11:41:33;;;;;;;;;;;;;;;;;;;;;
2022/11/19 11:46:28;;;;;;;26.93;14.70;;;6.50;99.90;;;;;;4502384;23;20593;-94
2022/11/19 11:48:54;;;;;;;26.60;14.83;;;6.60;99.90;;;;;;4085152;29;20195;-94
2022/11/19 11:51:44;;;;;;;;;;;;;;;;;;;;;
2022/11/19 12:00:22;;;;;;;28.83;15.50;;;6.40;99.90;;;;;;4092451;28;20731;-93
2022/11/19 12:03:20;;;;;;;26.27;14.60;;;6.50;99.90;;;;;;4133805;28;20180;-94
2022/11/19 12:05:55;;;;;;;24.03;14.03;;;6.60;99.90;;;;;;4118774;28;20222;-94
2022/11/19 12:08:55;;;;;;;25.47;14.23;;;6.50;99.90;;;;;;4117577;28;20212;-94
2022/11/19 12:11:56;;;;;;;27.63;15.03;;;6.40;99.90;;;;;;4125505;28;20181;-93
2022/11/19 12:14:55;;;;;;;22.53;13.07;;;6.30;99.90;;;;;;4119422;28;20197;-95
2022/11/19 12:17:15;;;;;;;25.57;13.83;;;6.20;99.90;;;;;;4118844;28;20666;-93
2022/11/19 12:19:25;;;;;;;21.63;12.20;;;6.10;99.90;;;;;;4123501;28;20178;-96
2022/11/19 12:21:44;;;;;;;25.63;14.20;;;6.00;99.90;;;;;;4121624;28;20570;-92
2022/11/19 12:24:05;;;;;;;24.43;13.37;;;5.90;99.90;;;;;;4122427;28;20729;-95
2022/11/19 12:26:21;;;;;;;24.47;13.97;;;5.90;99.90;;;;;;4120511;28;20205;-93
2022/11/19 12:28:28;;;;;;;25.37;13.67;;;5.90;99.90;;;;;;4123373;28;20184;-92
2022/11/19 12:31:15;;;;;;;19.93;12.23;;;5.90;99.90;;;;;;4107109;28;20175;-94
2022/11/19 12:33:29;;;;;;;27.50;14.73;;;5.80;99.90;;;;;;4091597;28;20221;-91
2022/11/19 12:36:08;;;;;;;27.47;13.80;;;5.70;99.90;;;;;;4133732;28;20182;-90
2022/11/19 12:38:28;;;;;;;29.33;15.87;;;5.60;99.90;;;;;;4136747;28;20233;-93
2022/11/19 12:40:50;;;;;;;32.47;15.17;;;5.50;99.90;;;;;;4137361;28;20184;-94
2022/11/19 12:43:14;;;;;;;29.27;15.43;;;5.50;99.90;;;;;;4136963;28;20190;-92
2022/11/19 12:45:29;;;;;;;33.17;16.33;;;5.50;99.90;;;;;;4131242;28;20177;-95
2022/11/19 12:47:48;;;;;;;33.30;16.50;;;5.50;99.90;;;;;;4134397;28;20268;-93
2022/11/19 12:50:03;;;;;;;32.77;16.03;;;5.60;99.90;;;;;;4118947;28;20631;-95
2022/11/19 12:52:22;;;;;;;27.37;13.57;;;5.70;99.90;;;;;;4103395;28;20563;-92
2022/11/19 12:54:43;;;;;;;27.27;14.70;;;5.70;99.90;;;;;;4118526;28;20198;-95
2022/11/19 12:57:14;;;;;;;32.90;15.93;;;5.60;99.90;;;;;;4118796;28;20179;-92
2022/11/19 12:59:20;;;;;;;36.83;16.20;;;5.60;99.90;;;;;;4118027;28;20545;-91
2022/11/19 13:01:27;;;;;;;35.83;16.33;;;5.70;99.90;;;;;;4135534;28;20193;-92
2022/11/19 13:04:13;;;;;;;35.47;18.10;;;5.80;99.90;;;;;;4118502;28;20583;-92
2022/11/19 13:06:42;;;;;;;41.17;18.67;;;5.60;99.90;;;;;;4104277;28;20222;-95
2022/11/19 13:08:52;;;;;;;42.57;18.27;;;5.50;99.90;;;;;;4098622;28;20270;-92
2022/11/19 13:11:09;;;;;;;41.67;19.70;;;5.50;99.90;;;;;;4136234;28;20177;-93
2022/11/19 13:13:14;;;;;;;40.03;19.73;;;5.60;99.90;;;;;;4106959;28;20202;-93
2022/11/19 13:15:25;;;;;;;43.43;20.23;;;5.60;99.90;;;;;;4103573;28;20273;-95
2022/11/19 13:17:45;;;;;;;47.80;21.47;;;5.50;99.90;;;;;;4121147;28;20566;-92
2022/11/19 13:19:55;;;;;;;46.00;20.50;;;5.50;99.90;;;;;;4119726;28;20178;-92
2022/11/19 13:22:17;;;;;;;47.00;21.13;;;5.50;99.90;;;;;;4120555;28;20180;-91
2022/11/19 13:24:36;;;;;;;50.60;21.87;;;5.40;99.90;;;;;;4120914;28;20793;-92
2022/11/19 13:26:38;;;;;;;51.60;23.33;;;5.40;99.90;;;;;;4137094;28;20216;-96
2022/11/19 13:28:49;;;;;;;54.97;23.10;;;5.40;99.90;;;;;;4106925;28;20205;-94
2022/11/19 13:30:52;;;;;;;52.10;21.60;;;5.40;99.90;;;;;;4119856;28;20201;-92
2022/11/19 13:33:19;;;;;;;51.17;22.63;;;5.50;99.90;;;;;;4118206;28;20170;-92
2022/11/19 13:35:31;;;;;;;50.80;23.37;;;5.50;99.90;;;;;;4118081;28;20181;-94
2022/11/19 13:38:22;;;;;;;59.63;22.13;;;5.40;99.90;;;;;;4118294;28;20186;-94
2022/11/19 13:40:37;;;;;;;44.17;20.03;;;5.40;99.90;;;;;;4100866;28;20179;-95
2022/11/19 13:44:58;;;;;;;49.13;22.13;;;5.50;99.90;;;;;;4134174;28;20205;-93
2022/11/19 13:47:00;;;;;;;46.73;23.13;;;5.50;99.90;;;;;;4117919;28;20693;-96
2022/11/19 13:49:04;;;;;;;55.17;23.20;;;5.50;99.90;;;;;;4117933;28;20174;-94
2022/11/19 13:51:27;;;;;;;49.27;21.50;;;5.50;99.90;;;;;;4117139;28;20218;-92
2022/11/19 13:53:42;;;;;;;48.40;22.80;;;5.60;99.90;;;;;;4100687;28;20234;-93
2022/11/19 13:55:44;;;;;;;56.23;23.83;;;5.50;99.90;;;;;;4117142;28;20182;-95
2022/11/19 13:57:45;;;;;;;57.37;23.83;;;5.50;99.90;;;;;;4132760;28;20193;-93
2022/11/19 14:00:12;;;;;;;53.80;23.60;;;5.60;99.90;;;;;;4116648;28;20170;-95
2022/11/19 14:02:36;;;;;;;50.77;23.80;;;5.60;99.90;;;;;;4132890;28;20208;-95
2022/11/19 14:04:39;;;;;;;50.13;22.03;;;5.50;99.90;;;;;;4133088;28;20296;-94
2022/11/19 14:07:12;;;;;;;52.73;23.77;;;5.40;99.90;;;;;;4148606;28;20220;-93
2022/11/19 14:09:48;;;;;;;49.40;23.50;;;5.30;99.90;;;;;;4117384;28;20186;-93
2022/11/19 14:12:24;;;;;;;56.87;24.90;;;5.30;99.90;;;;;;4116553;28;20635;-92
2022/11/19 14:28:42;;;;;;;53.70;23.23;;;5.90;99.90;;;;;;4115985;28;20209;-93
2022/11/19 14:31:04;;;;;;;54.70;24.03;;;5.90;99.90;;;;;;4132024;28;20642;-94